Time;durP1;ratioP1;P1;durP2;ratioP2;P2;SDS_P1;SDS_P2;PMS_P1;PMS_P2;Temp;Humidity;BMP_temperature;BMP_pressure;BME280_temperature;BME280_humidity;BME280_pressure;Samples;Min_cycle;Max_cycle;Signal;HPM_P1;HPM_P2
2024/03/07 00:01:35;;;;;;;7.03;5.30;;;;;;;;;;4982282;28;20560;-47
2024/03/07 00:04:01;;;;;;;13.50;5.28;;;;;;;;;;4975009;28;20122;-52
2024/03/07 00:06:27;;;;;;;7.47;5.50;;;;;;;;;;4994227;28;20500;-49
2024/03/07 00:08:54;;;;;;;7.90;5.53;;;;;;;;;;4982102;28;20088;-48
2024/03/07 00:11:21;;;;;;;10.55;5.63;;;;;;;;;;4977076;28;20042;-47
2024/03/07 00:13:47;;;;;;;10.40;5.13;;;;;;;;;;4974942;28;20203;-49
2024/03/07 00:16:13;;;;;;;11.32;5.43;;;;;;;;;;4982473;28;20489;-49
2024/03/07 00:18:40;;;;;;;11.95;7.05;;;;;;;;;;4989657;28;20030;-51
2024/03/07 00:21:08;;;;;;;7.78;6.20;;;;;;;;;;4993930;28;20110;-51
2024/03/07 00:23:34;;;;;;;15.45;6.25;;;;;;;;;;4983499;28;20501;-48
2024/03/07 00:26:00;;;;;;;10.18;6.80;;;;;;;;;;4974408;28;20026;-48
2024/03/07 00:28:32;;;;;;;13.18;6.20;;;;;;;;;;4985367;28;20080;-47
2024/03/07 00:30:58;;;;;;;12.48;6.53;;;;;;;;;;4986351;28;20027;-51
2024/03/07 00:33:25;;;;;;;8.82;6.32;;;;;;;;;;5007601;28;20034;-52
2024/03/07 00:35:51;;;;;;;9.60;6.32;;;;;;;;;;4992258;28;20050;-51
2024/03/07 00:38:17;;;;;;;11.90;6.55;;;;;;;;;;4984016;28;20552;-47
2024/03/07 00:40:44;;;;;;;8.00;6.43;;;;;;;;;;4975404;28;20026;-48
2024/03/07 00:43:10;;;;;;;10.93;6.72;;;;;;;;;;4974363;28;20489;-48
2024/03/07 00:45:37;;;;;;;6.88;6.07;;;;;;;;;;4978264;28;20489;-47
2024/03/07 00:48:03;;;;;;;10.13;6.63;;;;;;;;;;4986124;28;20026;-47
2024/03/07 00:50:30;;;;;;;9.43;5.82;;;;;;;;;;4974259;28;20046;-48
2024/03/07 00:52:56;;;;;;;;;;;;;;;;;;4974467;28;20039;-49
2024/03/07 00:55:23;;;;;;;8.75;6.10;;;;;;;;;;4983202;28;19914;-50
2024/03/07 00:57:49;;;;;;;11.10;6.70;;;;;;;;;;4993057;28;20023;-47
2024/03/07 01:00:17;;;;;;;7.88;5.97;;;;;;;;;;4990215;28;20084;-50
2024/03/07 01:02:44;;;;;;;8.90;6.15;;;;;;;;;;4974973;28;20030;-48
2024/03/07 01:05:13;;;;;;;7.13;6.18;;;;;;;;;;4974134;28;20039;-52
2024/03/07 01:07:40;;;;;;;9.68;5.95;;;;;;;;;;4980421;28;20034;-48
2024/03/07 01:10:08;;;;;;;9.13;5.63;;;;;;;;;;4991716;28;20102;-49
2024/03/07 01:12:35;;;;;;;12.30;6.63;;;;;;;;;;4982267;28;20042;-48
2024/03/07 01:15:04;;;;;;;7.85;6.15;;;;;;;;;;4980079;28;20034;-48
2024/03/07 01:17:30;;;;;;;7.40;5.70;;;;;;;;;;4992196;28;20026;-51
2024/03/07 01:19:57;;;;;;;11.00;6.53;;;;;;;;;;4972907;28;20058;-50
2024/03/07 01:22:24;;;;;;;7.88;6.22;;;;;;;;;;4983576;28;20026;-47
2024/03/07 01:24:53;;;;;;;14.45;7.50;;;;;;;;;;4989415;28;20168;-47
2024/03/07 01:27:19;;;;;;;14.02;7.78;;;;;;;;;;4984447;28;20449;-47
2024/03/07 01:29:46;;;;;;;8.10;6.13;;;;;;;;;;4976671;28;20046;-47
2024/03/07 01:32:12;;;;;;;9.23;6.43;;;;;;;;;;4988959;28;20061;-47
2024/03/07 01:34:38;;;;;;;8.97;6.30;;;;;;;;;;4992808;28;20130;-47
2024/03/07 01:37:05;;;;;;;11.70;7.07;;;;;;;;;;4990587;28;20272;-47
2024/03/07 01:39:31;;;;;;;9.80;7.73;;;;;;;;;;4979220;28;20039;-48
2024/03/07 01:41:57;;;;;;;10.40;6.38;;;;;;;;;;4990916;28;20026;-48
2024/03/07 01:44:23;;;;;;;10.23;7.53;;;;;;;;;;4985826;28;20501;-48
2024/03/07 01:46:50;;;;;;;11.07;6.45;;;;;;;;;;4996418;28;20413;-48
2024/03/07 01:49:16;;;;;;;8.93;7.30;;;;;;;;;;4984611;28;20027;-48
2024/03/07 01:51:43;;;;;;;7.82;6.28;;;;;;;;;;4991051;28;20121;-49
2024/03/07 01:54:10;;;;;;;11.15;6.15;;;;;;;;;;4990040;28;20030;-51
2024/03/07 01:56:38;;;;;;;8.07;6.78;;;;;;;;;;4976920;28;20190;-52
2024/03/07 01:59:05;;;;;;;8.07;6.75;;;;;;;;;;4977061;28;20046;-49
2024/03/07 02:01:31;;;;;;;8.73;7.28;;;;;;;;;;4980173;28;20026;-49
2024/03/07 02:03:58;;;;;;;11.63;6.25;;;;;;;;;;4978154;28;20030;-49
2024/03/07 02:06:25;;;;;;;7.63;6.57;;;;;;;;;;4972749;28;20023;-47
2024/03/07 02:08:51;;;;;;;;;;;;;;;;;;4996688;28;20057;-47
2024/03/07 02:11:17;;;;;;;9.93;6.90;;;;;;;;;;4979809;28;19965;-48
2024/03/07 02:13:43;;;;;;;9.90;6.93;;;;;;;;;;4975407;28;20082;-50
2024/03/07 02:16:10;;;;;;;11.00;7.35;;;;;;;;;;4983197;28;20441;-50
2024/03/07 02:18:38;;;;;;;15.50;8.10;;;;;;;;;;4987502;28;20066;-48
2024/03/07 02:21:11;;;;;;;9.25;7.03;;;;;;;;;;4991822;28;20053;-48
2024/03/07 02:23:38;;;;;;;9.43;6.47;;;;;;;;;;4989954;28;20688;-47
2024/03/07 02:26:04;;;;;;;10.73;6.78;;;;;;;;;;4981745;28;20547;-48
2024/03/07 02:28:30;;;;;;;8.23;6.30;;;;;;;;;;4973852;28;20130;-48
2024/03/07 02:30:57;;;;;;;9.80;7.00;;;;;;;;;;4992703;28;20405;-47
2024/03/07 02:33:23;;;;;;;8.20;7.28;;;;;;;;;;4992157;28;20049;-49
2024/03/07 02:35:49;;;;;;;10.82;7.57;;;;;;;;;;4972547;28;20282;-50
2024/03/07 02:38:17;;;;;;;8.73;6.85;;;;;;;;;;4971246;28;20037;-47
2024/03/07 02:40:43;;;;;;;11.70;7.72;;;;;;;;;;4974353;28;20106;-48
2024/03/07 02:43:10;;;;;;;8.38;6.57;;;;;;;;;;4977818;28;20022;-47
2024/03/07 02:45:36;;;;;;;13.15;7.50;;;;;;;;;;4980974;28;20064;-51
2024/03/07 02:48:02;;;;;;;8.88;7.25;;;;;;;;;;4992295;28;20030;-50
2024/03/07 02:50:30;;;;;;;11.10;8.13;;;;;;;;;;4977651;28;20078;-49
2024/03/07 02:52:56;;;;;;;10.93;8.02;;;;;;;;;;4987695;28;20508;-48
2024/03/07 02:55:23;;;;;;;10.88;7.68;;;;;;;;;;4979106;28;20106;-47
2024/03/07 02:57:49;;;;;;;9.57;7.97;;;;;;;;;;4980838;28;20462;-47
2024/03/07 03:00:26;;;;;;;11.10;7.93;;;;;;;;;;4976155;28;20117;-48
2024/03/07 03:02:53;;;;;;;12.88;9.07;;;;;;;;;;4991671;28;20489;-48
2024/03/07 03:05:19;;;;;;;12.38;9.38;;;;;;;;;;4989887;28;20026;-49
2024/03/07 03:07:52;;;;;;;11.70;9.13;;;;;;;;;;4990230;28;20583;-47
2024/03/07 03:10:25;;;;;;;12.35;9.05;;;;;;;;;;4983654;28;20037;-52
2024/03/07 03:12:54;;;;;;;15.23;9.98;;;;;;;;;;4977461;28;20062;-48
2024/03/07 03:15:21;;;;;;;14.98;9.82;;;;;;;;;;4980240;28;20026;-51
2024/03/07 03:17:48;;;;;;;11.43;9.47;;;;;;;;;;4991472;28;20484;-48
2024/03/07 03:20:31;;;;;;;14.65;10.70;;;;;;;;;;4985332;28;20269;-49
2024/03/07 03:22:58;;;;;;;13.93;10.07;;;;;;;;;;4975737;28;20041;-51
2024/03/07 03:25:24;;;;;;;;;;;;;;;;;;4990458;28;20031;-47
2024/03/07 03:27:50;;;;;;;13.07;9.35;;;;;;;;;;4993800;28;20012;-48
2024/03/07 03:30:18;;;;;;;13.27;9.73;;;;;;;;;;4985210;28;20034;-50
2024/03/07 03:32:47;;;;;;;12.40;9.50;;;;;;;;;;4983611;28;20352;-48
2024/03/07 03:35:15;;;;;;;12.60;10.48;;;;;;;;;;4993777;28;20034;-49
2024/03/07 03:37:42;;;;;;;14.80;10.40;;;;;;;;;;4977061;28;20062;-49
2024/03/07 03:40:12;;;;;;;14.20;11.25;;;;;;;;;;4994656;28;20049;-49
2024/03/07 03:42:39;;;;;;;16.60;10.23;;;;;;;;;;4989805;28;20019;-48
2024/03/07 03:45:06;;;;;;;14.48;10.15;;;;;;;;;;4993238;28;20026;-51
2024/03/07 03:47:39;;;;;;;13.90;9.57;;;;;;;;;;4993122;28;20398;-47
2024/03/07 03:50:05;;;;;;;13.27;9.52;;;;;;;;;;4992716;28;20030;-51
2024/03/07 03:52:32;;;;;;;14.23;9.98;;;;;;;;;;4979670;28;20023;-47
2024/03/07 03:54:59;;;;;;;15.40;10.40;;;;;;;;;;4977458;28;20038;-46
2024/03/07 03:57:26;;;;;;;10.90;8.32;;;;;;;;;;4975134;28;20038;-51
2024/03/07 03:59:53;;;;;;;15.13;10.10;;;;;;;;;;4979248;28;20033;-52
2024/03/07 04:02:19;;;;;;;12.48;8.50;;;;;;;;;;4977599;28;20027;-50
2024/03/07 04:04:45;;;;;;;12.38;9.07;;;;;;;;;;4993123;28;20031;-49
2024/03/07 04:07:12;;;;;;;12.48;8.18;;;;;;;;;;4994316;28;20113;-51
2024/03/07 04:09:38;;;;;;;13.30;7.47;;;;;;;;;;4994426;28;20206;-47
2024/03/07 04:12:05;;;;;;;9.77;7.60;;;;;;;;;;4979630;28;20077;-47
2024/03/07 04:14:35;;;;;;;12.48;7.35;;;;;;;;;;4977299;28;20023;-49
2024/03/07 04:17:01;;;;;;;9.80;6.95;;;;;;;;;;4988589;28;20030;-48
2024/03/07 04:19:30;;;;;;;8.25;7.10;;;;;;;;;;4989720;28;20085;-50
2024/03/07 04:21:57;;;;;;;9.30;6.15;;;;;;;;;;4985360;28;20031;-49
2024/03/07 04:24:23;;;;;;;10.18;6.93;;;;;;;;;;4994205;28;20454;-49
2024/03/07 04:26:49;;;;;;;13.65;7.45;;;;;;;;;;4992371;28;20030;-47
2024/03/07 04:29:16;;;;;;;8.52;7.50;;;;;;;;;;4978615;28;20042;-47
2024/03/07 04:31:42;;;;;;;9.82;7.63;;;;;;;;;;4986606;28;20045;-49
2024/03/07 04:34:09;;;;;;;12.27;7.22;;;;;;;;;;4990863;28;20093;-48
2024/03/07 04:36:36;;;;;;;11.05;7.18;;;;;;;;;;4974342;28;20034;-48
2024/03/07 04:39:04;;;;;;;12.52;8.02;;;;;;;;;;4973078;28;20042;-49
2024/03/07 04:41:30;;;;;;;9.38;7.15;;;;;;;;;;4974341;28;20042;-48
2024/03/07 04:43:57;;;;;;;9.50;6.97;;;;;;;;;;4998998;28;20045;-47
2024/03/07 04:46:23;;;;;;;10.13;6.97;;;;;;;;;;4980339;28;20046;-48
2024/03/07 04:48:49;;;;;;;17.58;8.02;;;;;;;;;;4975533;28;20057;-50
2024/03/07 04:51:15;;;;;;;11.68;7.70;;;;;;;;;;4974206;28;20063;-61
2024/03/07 04:53:42;;;;;;;8.07;6.45;;;;;;;;;;4974206;28;20031;-47
2024/03/07 04:56:09;;;;;;;17.27;8.13;;;;;;;;;;4991525;28;20574;-49
2024/03/07 04:58:36;;;;;;;12.73;7.13;;;;;;;;;;4992723;28;20170;-48
2024/03/07 05:01:02;;;;;;;11.65;7.82;;;;;;;;;;4993573;28;20089;-48
2024/03/07 05:03:29;;;;;;;7.40;6.20;;;;;;;;;;4993302;28;20022;-51
2024/03/07 05:05:57;;;;;;;;;;;;;;;;;;4992539;28;20030;-49
2024/03/07 05:08:23;;;;;;;9.43;6.82;;;;;;;;;;4992912;28;19987;-52
2024/03/07 05:10:49;;;;;;;8.32;7.10;;;;;;;;;;4991489;28;20162;-48
2024/03/07 05:13:15;;;;;;;15.85;10.25;;;;;;;;;;4991456;28;20551;-52
2024/03/07 05:15:42;;;;;;;12.35;8.80;;;;;;;;;;4991293;28;20038;-52
2024/03/07 05:18:08;;;;;;;12.65;8.65;;;;;;;;;;4991675;28;20524;-50
2024/03/07 05:20:34;;;;;;;19.67;14.63;;;;;;;;;;4990308;28;20034;-48
2024/03/07 05:23:01;;;;;;;15.85;11.10;;;;;;;;;;4990107;28;20022;-50
2024/03/07 05:25:27;;;;;;;16.98;12.55;;;;;;;;;;4992763;28;20030;-48
2024/03/07 05:27:54;;;;;;;11.68;9.15;;;;;;;;;;4993097;28;20034;-49
2024/03/07 05:30:22;;;;;;;13.38;9.60;;;;;;;;;;4991738;28;20034;-51
2024/03/07 05:32:49;;;;;;;12.55;9.90;;;;;;;;;;4992934;28;20104;-54
2024/03/07 05:35:15;;;;;;;13.40;8.90;;;;;;;;;;4992961;28;20050;-51
2024/03/07 05:37:46;;;;;;;13.27;10.20;;;;;;;;;;4991581;28;20036;-52
2024/03/07 05:40:13;;;;;;;17.83;11.18;;;;;;;;;;4992854;28;20766;-51
2024/03/07 05:42:39;;;;;;;11.95;9.80;;;;;;;;;;4992508;28;20030;-52
2024/03/07 05:45:07;;;;;;;14.85;9.70;;;;;;;;;;4992175;28;20030;-56
2024/03/07 05:47:34;;;;;;;15.02;10.32;;;;;;;;;;4992669;28;20030;-50
2024/03/07 05:50:00;;;;;;;16.50;10.95;;;;;;;;;;4992825;28;20034;-49
2024/03/07 05:52:27;;;;;;;16.65;10.45;;;;;;;;;;4992749;28;20026;-50
2024/03/07 05:54:53;;;;;;;15.68;10.63;;;;;;;;;;4992618;28;20034;-55
2024/03/07 05:57:20;;;;;;;13.20;9.57;;;;;;;;;;4992210;28;20404;-50
2024/03/07 05:59:47;;;;;;;14.13;10.35;;;;;;;;;;4992587;28;20088;-49
2024/03/07 06:02:15;;;;;;;10.10;8.50;;;;;;;;;;4991457;28;20038;-53
2024/03/07 06:04:43;;;;;;;11.40;8.82;;;;;;;;;;4992430;28;20025;-53
2024/03/07 06:07:10;;;;;;;9.02;7.68;;;;;;;;;;4992102;28;20396;-51
2024/03/07 06:09:37;;;;;;;13.82;8.77;;;;;;;;;;4991100;28;20032;-53
2024/03/07 06:12:04;;;;;;;9.45;7.88;;;;;;;;;;4991374;28;20057;-51
2024/03/07 06:14:30;;;;;;;14.52;9.32;;;;;;;;;;4991287;28;20033;-55
2024/03/07 06:16:58;;;;;;;14.60;9.13;;;;;;;;;;4990723;28;20046;-48
2024/03/07 06:19:24;;;;;;;13.68;9.07;;;;;;;;;;4992410;28;20038;-59
2024/03/07 06:21:52;;;;;;;15.30;9.82;;;;;;;;;;4992368;28;20031;-57
2024/03/07 06:24:18;;;;;;;13.90;10.27;;;;;;;;;;4992298;28;20041;-58
2024/03/07 06:29:15;;;;;;;15.60;10.07;;;;;;;;;;4991001;28;20042;-57
2024/03/07 06:31:42;;;;;;;14.27;9.52;;;;;;;;;;4992269;28;20112;-57
2024/03/07 06:34:09;;;;;;;13.50;9.52;;;;;;;;;;4992447;28;20026;-55
2024/03/07 06:36:36;;;;;;;15.48;9.88;;;;;;;;;;4992312;28;20042;-58
2024/03/07 06:39:06;;;;;;;12.00;9.68;;;;;;;;;;4992435;28;20081;-52
2024/03/07 06:41:34;;;;;;;13.60;9.20;;;;;;;;;;4992152;28;20481;-53
2024/03/07 06:44:01;;;;;;;14.85;9.55;;;;;;;;;;4992162;28;20031;-52
2024/03/07 06:46:28;;;;;;;16.08;9.15;;;;;;;;;;4992153;28;20052;-51
2024/03/07 06:48:55;;;;;;;11.45;9.25;;;;;;;;;;4992160;28;20081;-48
2024/03/07 06:51:22;;;;;;;16.08;11.40;;;;;;;;;;4992030;28;20034;-48
2024/03/07 06:53:50;;;;;;;17.20;11.48;;;;;;;;;;4992057;28;20042;-51
2024/03/07 06:56:16;;;;;;;16.75;12.35;;;;;;;;;;4995118;28;20496;-50
2024/03/07 06:58:42;;;;;;;14.80;11.20;;;;;;;;;;4995754;28;20617;-48
2024/03/07 07:01:10;;;;;;;18.92;12.48;;;;;;;;;;4993250;28;20281;-52
2024/03/07 07:03:37;;;;;;;14.80;11.18;;;;;;;;;;4995387;28;20509;-51
2024/03/07 07:06:05;;;;;;;18.95;12.10;;;;;;;;;;4995028;28;20030;-49
2024/03/07 07:08:32;;;;;;;16.58;12.23;;;;;;;;;;4995569;28;20030;-50
2024/03/07 07:10:59;;;;;;;15.60;9.57;;;;;;;;;;4995177;28;20034;-51
2024/03/07 07:13:25;;;;;;;12.90;9.25;;;;;;;;;;4995400;28;20038;-51
2024/03/07 07:15:53;;;;;;;14.73;9.67;;;;;;;;;;4994833;28;20057;-50
2024/03/07 07:18:20;;;;;;;14.48;8.93;;;;;;;;;;4993943;28;20286;-52
2024/03/07 07:20:47;;;;;;;10.43;8.57;;;;;;;;;;4994936;28;20026;-48
2024/03/07 07:23:13;;;;;;;13.18;7.60;;;;;;;;;;4995394;28;20030;-53
2024/03/07 07:25:40;;;;;;;8.73;7.60;;;;;;;;;;4993557;28;20030;-53
2024/03/07 07:28:07;;;;;;;13.63;7.93;;;;;;;;;;4995080;28;20033;-49
2024/03/07 07:30:34;;;;;;;12.10;6.20;;;;;;;;;;4994738;28;20065;-51
2024/03/07 07:33:00;;;;;;;12.63;6.97;;;;;;;;;;4995178;28;20026;-49
2024/03/07 07:35:26;;;;;;;9.23;5.57;;;;;;;;;;4994518;28;20038;-49
2024/03/07 07:37:53;;;;;;;6.77;5.33;;;;;;;;;;4993761;28;20038;-52
2024/03/07 07:40:22;;;;;;;10.27;6.38;;;;;;;;;;4994595;28;20019;-51
2024/03/07 07:42:50;;;;;;;10.52;5.88;;;;;;;;;;4995020;28;20369;-49
2024/03/07 07:45:16;;;;;;;10.02;6.55;;;;;;;;;;4994325;28;20034;-49
2024/03/07 07:47:43;;;;;;;15.30;6.78;;;;;;;;;;4994856;28;20471;-52
2024/03/07 07:50:13;;;;;;;7.13;5.13;;;;;;;;;;4993190;28;20034;-52
2024/03/07 07:52:55;;;;;;;8.50;5.30;;;;;;;;;;4994899;28;20112;-53
2024/03/07 07:55:22;;;;;;;7.80;5.50;;;;;;;;;;4994276;28;20030;-52
2024/03/07 07:57:52;;;;;;;9.35;5.90;;;;;;;;;;4994605;28;20073;-50
2024/03/07 08:00:22;;;;;;;12.63;7.55;;;;;;;;;;4994191;28;20026;-48
2024/03/07 08:02:52;;;;;;;9.27;5.38;;;;;;;;;;4994707;28;20149;-48
2024/03/07 08:05:25;;;;;;;11.63;6.20;;;;;;;;;;4994071;28;20030;-48
2024/03/07 08:07:52;;;;;;;10.45;6.07;;;;;;;;;;4993483;28;20061;-50
2024/03/07 08:10:19;;;;;;;9.10;6.43;;;;;;;;;;4994021;28;20026;-51
2024/03/07 08:12:45;;;;;;;;;;;;;;;;;;4993626;28;20117;-49
2024/03/07 08:15:15;;;;;;;8.75;6.53;;;;;;;;;;4993887;28;19913;-51
2024/03/07 08:17:45;;;;;;;9.85;6.53;;;;;;;;;;4994140;28;20031;-49
2024/03/07 08:20:11;;;;;;;10.43;6.72;;;;;;;;;;4993834;28;20073;-49
2024/03/07 08:22:40;;;;;;;13.00;7.57;;;;;;;;;;4993011;28;20057;-49
2024/03/07 08:25:09;;;;;;;9.30;6.38;;;;;;;;;;4993581;28;20269;-48
2024/03/07 08:27:36;;;;;;;12.70;7.47;;;;;;;;;;4985822;28;20042;-49
2024/03/07 08:30:02;;;;;;;;;;;;;;;;;;4994169;28;20038;-50
2024/03/07 08:32:28;;;;;;;8.93;7.68;;;;;;;;;;4993061;28;19909;-51
2024/03/07 08:34:55;;;;;;;11.67;7.93;;;;;;;;;;4993700;28;20040;-51
2024/03/07 08:37:21;;;;;;;11.77;8.05;;;;;;;;;;4993776;28;20049;-52
2024/03/07 08:39:47;;;;;;;12.45;9.15;;;;;;;;;;4992421;28;20389;-48
2024/03/07 08:42:16;;;;;;;16.13;10.43;;;;;;;;;;4994062;28;20608;-48
2024/03/07 08:44:42;;;;;;;16.75;9.43;;;;;;;;;;4993551;28;20539;-53
2024/03/07 08:47:09;;;;;;;11.77;9.80;;;;;;;;;;4993602;28;20029;-50
2024/03/07 08:49:36;;;;;;;15.30;12.40;;;;;;;;;;4993739;28;20335;-50
2024/03/07 08:52:02;;;;;;;12.23;10.10;;;;;;;;;;4993582;28;20022;-50
2024/03/07 08:54:28;;;;;;;15.77;11.95;;;;;;;;;;4993299;28;20023;-48
2024/03/07 08:56:54;;;;;;;14.70;11.57;;;;;;;;;;4993368;28;20023;-52
2024/03/07 08:59:21;;;;;;;15.70;11.63;;;;;;;;;;4993145;28;20027;-51
2024/03/07 09:01:48;;;;;;;14.27;11.90;;;;;;;;;;4993319;28;20112;-52
2024/03/07 09:04:16;;;;;;;23.30;13.35;;;;;;;;;;4993167;28;20474;-50
2024/03/07 09:06:42;;;;;;;23.23;14.73;;;;;;;;;;4993127;28;20042;-50
2024/03/07 09:09:08;;;;;;;20.60;14.52;;;;;;;;;;4993072;28;20556;-49
2024/03/07 09:11:36;;;;;;;18.20;13.50;;;;;;;;;;4992810;28;20045;-53
2024/03/07 09:14:09;;;;;;;19.90;15.40;;;;;;;;;;4993209;28;20500;-52
2024/03/07 09:16:36;;;;;;;19.98;15.73;;;;;;;;;;4993203;28;20511;-52
2024/03/07 09:19:02;;;;;;;15.88;12.77;;;;;;;;;;4992492;28;20105;-48
2024/03/07 09:21:29;;;;;;;17.65;13.15;;;;;;;;;;4991974;28;20022;-52
2024/03/07 09:23:55;;;;;;;16.48;12.98;;;;;;;;;;4992774;28;20053;-51
2024/03/07 09:26:22;;;;;;;22.47;14.73;;;;;;;;;;4992057;28;20389;-52
2024/03/07 09:28:48;;;;;;;19.02;13.68;;;;;;;;;;4992758;28;20034;-49
2024/03/07 09:31:15;;;;;;;16.35;13.13;;;;;;;;;;4992419;28;20084;-50
2024/03/07 09:33:42;;;;;;;22.48;14.13;;;;;;;;;;4992902;28;20161;-51
2024/03/07 09:36:08;;;;;;;16.65;12.80;;;;;;;;;;4992264;28;20081;-52
2024/03/07 09:38:35;;;;;;;19.25;13.02;;;;;;;;;;4991465;28;20042;-51
2024/03/07 09:41:02;;;;;;;19.02;13.45;;;;;;;;;;4992302;28;20416;-53
2024/03/07 09:43:28;;;;;;;18.52;13.40;;;;;;;;;;4992608;28;20477;-50
2024/03/07 09:45:56;;;;;;;20.58;14.77;;;;;;;;;;4992274;28;20019;-50
2024/03/07 09:48:25;;;;;;;18.15;15.55;;;;;;;;;;4992440;28;20022;-51
2024/03/07 09:50:53;;;;;;;21.50;15.77;;;;;;;;;;4992202;28;20035;-49
2024/03/07 09:53:20;;;;;;;17.50;14.35;;;;;;;;;;4992576;28;20030;-51
2024/03/07 09:55:47;;;;;;;18.63;14.80;;;;;;;;;;4991971;28;20045;-48
2024/03/07 09:58:15;;;;;;;28.05;16.98;;;;;;;;;;4992304;28;20441;-49
2024/03/07 10:00:42;;;;;;;15.65;13.85;;;;;;;;;;4991897;28;20508;-52
2024/03/07 10:03:16;;;;;;;23.52;16.50;;;;;;;;;;4992450;28;20018;-51
2024/03/07 10:05:42;;;;;;;22.92;14.52;;;;;;;;;;4991870;28;20404;-52
2024/03/07 10:08:10;;;;;;;20.55;14.82;;;;;;;;;;4992273;28;20026;-52
2024/03/07 10:10:37;;;;;;;19.08;14.85;;;;;;;;;;4991667;28;20520;-53
2024/03/07 10:13:05;;;;;;;21.40;14.57;;;;;;;;;;4992368;28;20113;-49
2024/03/07 10:15:33;;;;;;;18.02;14.95;;;;;;;;;;4991585;28;20062;-51
2024/03/07 10:18:03;;;;;;;20.92;15.27;;;;;;;;;;4992001;28;20437;-52
2024/03/07 10:20:29;;;;;;;20.52;15.07;;;;;;;;;;4991820;28;20105;-51
2024/03/07 10:23:00;;;;;;;20.08;13.65;;;;;;;;;;4990914;28;20041;-48
2024/03/07 10:25:27;;;;;;;22.58;15.25;;;;;;;;;;4991600;28;20039;-51
2024/03/07 10:27:54;;;;;;;19.45;14.63;;;;;;;;;;4992086;28;20026;-49
2024/03/07 10:30:20;;;;;;;19.65;15.73;;;;;;;;;;4992343;28;20030;-51
2024/03/07 10:32:55;;;;;;;17.80;13.40;;;;;;;;;;4996338;28;20034;-51
2024/03/07 10:35:25;;;;;;;22.17;14.93;;;;;;;;;;4995467;28;20277;-50
2024/03/07 10:37:55;;;;;;;23.38;15.40;;;;;;;;;;4996239;28;20034;-49
2024/03/07 10:40:22;;;;;;;23.85;15.27;;;;;;;;;;4994278;28;20022;-52
2024/03/07 10:42:51;;;;;;;;;;;;;;;;;;4996487;28;20388;-50
2024/03/07 10:45:21;;;;;;;19.48;15.75;;;;;;;;;;4995422;28;19949;-51
2024/03/07 10:47:51;;;;;;;19.92;14.10;;;;;;;;;;4995828;28;20034;-52
2024/03/07 10:50:20;;;;;;;21.95;14.52;;;;;;;;;;4995463;28;20378;-51
2024/03/07 10:53:02;;;;;;;20.35;15.15;;;;;;;;;;4995795;28;20448;-54
2024/03/07 10:55:36;;;;;;;20.80;15.27;;;;;;;;;;4995257;28;20034;-51
2024/03/07 10:58:08;;;;;;;17.33;13.80;;;;;;;;;;4995755;28;20033;-53
2024/03/07 11:00:35;;;;;;;20.10;15.07;;;;;;;;;;4995182;28;20027;-52
2024/03/07 11:03:06;;;;;;;22.17;15.43;;;;;;;;;;4995809;28;20370;-52
2024/03/07 11:05:33;;;;;;;21.95;16.23;;;;;;;;;;4995193;28;20030;-53
2024/03/07 11:08:11;;;;;;;20.85;15.48;;;;;;;;;;4994278;28;20481;-52
2024/03/07 11:10:37;;;;;;;22.90;16.80;;;;;;;;;;4995179;28;20103;-49
2024/03/07 11:13:05;;;;;;;26.38;17.58;;;;;;;;;;4995484;28;20038;-52
2024/03/07 11:15:33;;;;;;;23.08;16.83;;;;;;;;;;4994753;28;20035;-51
2024/03/07 11:17:59;;;;;;;24.98;16.65;;;;;;;;;;5023428;23;20053;-57
2024/03/07 11:20:28;;;;;;;27.83;17.58;;;;;;;;;;5007692;28;20125;-56
2024/03/07 11:22:55;;;;;;;23.20;15.52;;;;;;;;;;5014889;28;20026;-54
2024/03/07 11:25:22;;;;;;;25.33;16.85;;;;;;;;;;5014823;28;20033;-57
2024/03/07 11:27:52;;;;;;;19.45;15.80;;;;;;;;;;4995324;28;20385;-58
2024/03/07 11:30:21;;;;;;;20.02;14.63;;;;;;;;;;4996547;28;20038;-54
2024/03/07 11:32:49;;;;;;;19.67;15.55;;;;;;;;;;5014876;28;20045;-56
2024/03/07 11:35:15;;;;;;;23.63;15.43;;;;;;;;;;5003932;28;20688;-56
2024/03/07 11:37:47;;;;;;;26.90;16.63;;;;;;;;;;4994457;28;20125;-56
2024/03/07 11:40:20;;;;;;;22.20;16.75;;;;;;;;;;5005452;28;20057;-55
2024/03/07 11:42:50;;;;;;;26.30;16.60;;;;;;;;;;5000857;28;20034;-58
2024/03/07 11:45:25;;;;;;;21.63;16.58;;;;;;;;;;5002405;28;20030;-57
2024/03/07 11:48:19;;;;;;;21.00;16.30;;;;;;;;;;4997115;28;20038;-56
2024/03/07 11:50:42;;;;;;;28.05;16.15;;;;;;;;;;4995772;28;20081;-57
2024/03/07 11:53:09;;;;;;;24.02;17.83;;;;;;;;;;4997726;28;20080;-51
2024/03/07 11:55:45;;;;;;;23.08;16.25;;;;;;;;;;5001888;28;20087;-53
2024/03/07 11:58:16;;;;;;;21.15;16.27;;;;;;;;;;4994990;28;20085;-55
2024/03/07 12:00:45;;;;;;;21.20;15.77;;;;;;;;;;5004123;28;20039;-56
2024/03/07 12:03:13;;;;;;;21.08;16.10;;;;;;;;;;4999298;28;20049;-55
2024/03/07 12:05:43;;;;;;;21.10;16.95;;;;;;;;;;5003106;28;20085;-55
2024/03/07 12:08:09;;;;;;;22.08;15.77;;;;;;;;;;5001275;28;20046;-51
2024/03/07 12:10:36;;;;;;;23.50;17.42;;;;;;;;;;5009618;28;20037;-57
2024/03/07 12:13:03;;;;;;;22.20;16.60;;;;;;;;;;5012045;28;20030;-53
2024/03/07 12:15:31;;;;;;;24.65;16.38;;;;;;;;;;4995503;28;20040;-57
2024/03/07 12:17:58;;;;;;;22.58;16.75;;;;;;;;;;5008257;28;20133;-55
2024/03/07 12:20:24;;;;;;;20.33;16.07;;;;;;;;;;5002983;28;20026;-54
2024/03/07 12:22:59;;;;;;;24.77;17.50;;;;;;;;;;5007691;28;20018;-53
2024/03/07 12:25:26;;;;;;;24.15;18.80;;;;;;;;;;5001350;28;20029;-58
2024/03/07 12:27:52;;;;;;;;;;;;;;;;;;5012461;28;20542;-54
2024/03/07 12:30:19;;;;;;;23.77;17.75;;;;;;;;;;4992988;28;19960;-54
2024/03/07 12:32:49;;;;;;;25.75;16.55;;;;;;;;;;4975120;28;20031;-51
2024/03/07 12:35:16;;;;;;;23.17;17.23;;;;;;;;;;4993400;28;20382;-53
2024/03/07 12:37:42;;;;;;;25.37;17.80;;;;;;;;;;5008622;28;20033;-52
2024/03/07 12:40:17;;;;;;;21.50;16.33;;;;;;;;;;4992580;28;20033;-54
2024/03/07 12:42:46;;;;;;;22.60;17.60;;;;;;;;;;4992657;28;20937;-51
2024/03/07 12:45:17;;;;;;;28.27;17.52;;;;;;;;;;4993068;28;20034;-52
2024/03/07 12:47:50;;;;;;;23.17;16.77;;;;;;;;;;5011863;28;20558;-50
2024/03/07 12:50:17;;;;;;;26.48;17.27;;;;;;;;;;5008134;28;20030;-57
2024/03/07 12:52:43;;;;;;;;;;;;;;;;;;4993629;28;20064;-53
2024/03/07 12:55:10;;;;;;;22.67;16.90;;;;;;;;;;5010565;28;20276;-55
2024/03/07 12:57:40;;;;;;;26.63;17.00;;;;;;;;;;5011594;28;20504;-57
2024/03/07 13:00:16;;;;;;;29.83;18.88;;;;;;;;;;4991203;28;20443;-57
2024/03/07 13:02:44;;;;;;;19.35;14.90;;;;;;;;;;5009025;28;20053;-55
2024/03/07 13:05:18;;;;;;;17.70;15.32;;;;;;;;;;5009681;28;20034;-57
2024/03/07 13:07:48;;;;;;;19.35;14.63;;;;;;;;;;5010445;28;20048;-58
2024/03/07 13:10:15;;;;;;;20.38;15.43;;;;;;;;;;4991851;28;20080;-58
2024/03/07 13:12:45;;;;;;;18.83;15.07;;;;;;;;;;4991888;28;20026;-57
2024/03/07 13:15:15;;;;;;;18.65;15.70;;;;;;;;;;5006276;28;20038;-58
2024/03/07 13:17:44;;;;;;;21.80;14.73;;;;;;;;;;4991467;28;20526;-56
2024/03/07 13:20:11;;;;;;;18.25;14.50;;;;;;;;;;4996796;28;20488;-58
2024/03/07 13:22:46;;;;;;;17.48;14.43;;;;;;;;;;5011181;28;20079;-56
2024/03/07 13:25:15;;;;;;;17.95;15.20;;;;;;;;;;4991813;28;20435;-57
2024/03/07 13:27:43;;;;;;;19.20;14.05;;;;;;;;;;4991535;28;20381;-57
2024/03/07 13:30:13;;;;;;;17.60;13.63;;;;;;;;;;4996075;28;20033;-58
2024/03/07 13:32:39;;;;;;;16.05;12.43;;;;;;;;;;4992488;28;20511;-57
2024/03/07 13:35:11;;;;;;;14.93;11.35;;;;;;;;;;5000278;28;20125;-57
2024/03/07 13:37:37;;;;;;;13.55;10.85;;;;;;;;;;5008190;28;20041;-59
2024/03/07 13:40:22;;;;;;;15.13;11.35;;;;;;;;;;4996056;28;20061;-54
2024/03/07 13:42:51;;;;;;;16.15;13.43;;;;;;;;;;4989506;28;20571;-56
2024/03/07 13:45:20;;;;;;;19.17;12.43;;;;;;;;;;4999064;28;20026;-58
2024/03/07 13:47:52;;;;;;;13.35;10.02;;;;;;;;;;5008750;28;20034;-59
2024/03/07 13:50:22;;;;;;;13.65;9.55;;;;;;;;;;5010926;28;20037;-58
2024/03/07 13:55:40;;;;;;;9.70;8.43;;;;;;;;;;5009559;28;20125;-58
2024/03/07 13:58:14;;;;;;;13.13;7.72;;;;;;;;;;5010019;28;20429;-58
2024/03/07 14:00:46;;;;;;;13.80;9.82;;;;;;;;;;5007582;28;20026;-58
2024/03/07 14:03:22;;;;;;;10.95;9.10;;;;;;;;;;5008816;28;20091;-54
2024/03/07 14:06:00;;;;;;;10.40;8.70;;;;;;;;;;5001338;28;20045;-56
2024/03/07 14:08:45;;;;;;;10.95;9.48;;;;;;;;;;5002289;28;20377;-58
2024/03/07 14:11:31;;;;;;;11.38;9.23;;;;;;;;;;5012042;28;20037;-59
2024/03/07 14:14:07;;;;;;;13.10;9.35;;;;;;;;;;4998103;28;20117;-53
2024/03/07 14:16:39;;;;;;;11.77;9.15;;;;;;;;;;5011872;28;20034;-58
2024/03/07 14:19:24;;;;;;;13.48;8.40;;;;;;;;;;4999322;28;20093;-57
2024/03/07 14:22:11;;;;;;;14.13;8.05;;;;;;;;;;4991048;28;20027;-58
2024/03/07 14:24:43;;;;;;;12.57;8.45;;;;;;;;;;4992229;28;20030;-59
2024/03/07 14:27:23;;;;;;;10.15;7.85;;;;;;;;;;4990793;28;20121;-59
2024/03/07 14:30:08;;;;;;;10.50;6.93;;;;;;;;;;4992197;28;20034;-57
2024/03/07 14:32:38;;;;;;;9.35;6.18;;;;;;;;;;4992251;28;20162;-56
2024/03/07 14:35:34;;;;;;;9.40;6.55;;;;;;;;;;4990942;28;20058;-56
2024/03/07 14:38:15;;;;;;;10.57;6.20;;;;;;;;;;4983180;28;20118;-55
2024/03/07 14:40:44;;;;;;;6.95;5.03;;;;;;;;;;4992102;28;20027;-56
2024/03/07 14:43:10;;;;;;;8.35;6.25;;;;;;;;;;4990833;28;20026;-58